KBIE/BIE METAR and TAF weather

Enter ICAO airport designator
Station Type Date Time Source
KBIE METAR 2022/12/04 10:35 UTC NOAA

KBIE 041035Z AUTO 20003KT 10SM CLR M04/M10 A3024 RMK AO2 T10411100


Station Type Date Time Source
KBIE Decoded METAR 2022/12/04 10:35 UTC NOAA

Beatrice Municipal, NE, United States (KBIE) 40-18N 096-45W
Dec 04, 2022 - 05:35 AM EST / 2022.12.04 1035 UTC
Wind: from the SSW (200 degrees) at 3 MPH (3 KT):0
Visibility: 10 mile(s):0
Sky conditions: clear
Temperature: 24.6 F (-4.1 C)
Dew Point: 14.0 F (-10.0 C)
Relative Humidity: 63%
Pressure (altimeter): 30.24 in. Hg (1024 hPa)
ob: KBIE 041035Z AUTO 20003KT 10SM CLR M04/M10 A3024 RMK AO2 T10411100
cycle: 10

Station Type Date Time Source
KBIE TAF UTC NOAA

Error!

Example: see airport list